Time;durP1;ratioP1;P1;durP2;ratioP2;P2;SDS_P1;SDS_P2;PMS_P1;PMS_P2;Temp;Humidity;BMP_temperature;BMP_pressure;BME280_temperature;BME280_humidity;BME280_pressure;Samples;Min_cycle;Max_cycle;Signal;HPM_P1;HPM_P2
2021/06/27 00:01:10;;;;;;;;;;;27.90;54.20;;;;;;5117407;27;19924;-52
2021/06/27 00:03:38;;;;;;;;;;;27.90;54.20;;;;;;5134173;27;19924;-57
2021/06/27 00:06:05;;;;;;;;;;;27.90;54.20;;;;;;5132909;27;19927;-54
2021/06/27 00:08:33;;;;;;;;;;;27.90;54.20;;;;;;5125827;27;19938;-55
2021/06/27 00:11:00;;;;;;;;;;;27.90;54.30;;;;;;5116017;27;19924;-54
2021/06/27 00:13:28;;;;;;;;;;;27.90;54.20;;;;;;5120032;27;20275;-56
2021/06/27 00:15:55;;;;;;;;;;;27.90;54.20;;;;;;5133628;27;19934;-57
2021/06/27 00:18:24;;;;;;;;;;;27.90;54.20;;;;;;5132405;27;19931;-56
2021/06/27 00:20:53;;;;;;;;;;;27.90;54.80;;;;;;5134124;27;19927;-54
2021/06/27 00:23:22;;;;;;;;;;;27.90;54.30;;;;;;5131243;27;19923;-53
2021/06/27 00:25:49;;;;;;;;;;;27.90;54.30;;;;;;5133681;27;19976;-56
2021/06/27 00:28:16;;;;;;;;;;;27.90;54.30;;;;;;5127621;27;19935;-58
2021/06/27 00:30:45;;;;;;;;;;;27.90;54.30;;;;;;5116804;27;19924;-54
2021/06/27 00:33:13;;;;;;;;;;;27.90;54.30;;;;;;5134626;27;19928;-54
2021/06/27 00:35:40;;;;;;;;;;;27.90;54.30;;;;;;5132177;27;20379;-54
2021/06/27 00:38:07;;;;;;;;;;;27.90;54.30;;;;;;5134185;27;19924;-56
2021/06/27 00:40:35;;;;;;;;;;;27.90;54.30;;;;;;5133173;27;20367;-56
2021/06/27 00:43:03;;;;;;;;;;;27.90;54.30;;;;;;5133671;27;19923;-55
2021/06/27 00:45:30;;;;;;;;;;;27.90;54.30;;;;;;5119922;27;19932;-52
2021/06/27 00:47:58;;;;;;;;;;;27.90;54.30;;;;;;5127668;27;19949;-50
2021/06/27 00:50:37;;;;;;;;;;;27.90;54.30;;;;;;5130620;27;19978;-56
2021/06/27 00:53:05;;;;;;;;;;;27.90;54.30;;;;;;5131928;27;19953;-52
2021/06/27 00:55:32;;;;;;;;;;;27.90;54.30;;;;;;5131860;27;19923;-57
2021/06/27 00:57:59;;;;;;;;;;;27.90;54.30;;;;;;5131796;27;19970;-55
2021/06/27 01:00:28;;;;;;;;;;;27.90;54.30;;;;;;5131884;27;20320;-56
2021/06/27 01:02:56;;;;;;;;;;;27.90;54.40;;;;;;5131827;27;19927;-56
2021/06/27 01:05:27;;;;;;;;;;;27.90;54.30;;;;;;5134152;27;19923;-56
2021/06/27 01:07:55;;;;;;;;;;;27.80;54.30;;;;;;5131693;27;19923;-56
2021/06/27 01:10:22;;;;;;;;;;;27.90;54.40;;;;;;5133803;27;19976;-53
2021/06/27 01:12:50;;;;;;;;;;;27.80;54.30;;;;;;5124946;27;19923;-58
2021/06/27 01:15:17;;;;;;;;;;;27.80;54.30;;;;;;5115306;27;19924;-56
2021/06/27 01:17:47;;;;;;;;;;;27.80;54.30;;;;;;5116243;27;19936;-57
2021/06/27 01:20:16;;;;;;;;;;;27.80;54.30;;;;;;5120086;27;20395;-56
2021/06/27 01:22:44;;;;;;;;;;;27.80;54.30;;;;;;5130477;27;19924;-57
2021/06/27 01:25:11;;;;;;;;;;;27.90;54.40;;;;;;5132306;27;19935;-57
2021/06/27 01:27:38;;;;;;;;;;;27.80;54.30;;;;;;5129146;27;19927;-57
2021/06/27 01:30:09;;;;;;;;;;;27.80;54.40;;;;;;5131510;27;19932;-57
2021/06/27 01:32:40;;;;;;;;;;;27.80;54.40;;;;;;5132802;27;19983;-57
2021/06/27 01:35:12;;;;;;;;;;;27.80;54.40;;;;;;5131987;27;19984;-56
2021/06/27 01:37:40;;;;;;;;;;;27.80;54.40;;;;;;5111962;28;20383;-56
2021/06/27 01:40:08;;;;;;;;;;;27.80;54.40;;;;;;5114647;28;19923;-52
2021/06/27 01:42:35;;;;;;;;;;;27.80;54.40;;;;;;5133360;27;20318;-53
2021/06/27 01:45:16;;;;;;;;;;;27.80;54.40;;;;;;5131997;27;19927;-55
2021/06/27 01:47:43;;;;;;;;;;;27.80;54.40;;;;;;5113345;28;19924;-57
2021/06/27 01:50:11;;;;;;;;;;;27.80;54.40;;;;;;5133965;27;19923;-57
2021/06/27 01:52:38;;;;;;;;;;;27.80;54.50;;;;;;5113362;28;19931;-57
2021/06/27 01:55:05;;;;;;;;;;;27.80;54.40;;;;;;5131150;28;19931;-57
2021/06/27 01:57:32;;;;;;;;;;;27.80;54.40;;;;;;5129554;28;19924;-54
2021/06/27 01:59:59;;;;;;;;;;;27.80;54.50;;;;;;5097628;28;19924;-55
2021/06/27 02:02:26;;;;;;;;;;;27.80;54.50;;;;;;5129883;28;19972;-56
2021/06/27 02:04:55;;;;;;;;;;;27.80;54.50;;;;;;5133605;28;20328;-56
2021/06/27 02:07:22;;;;;;;;;;;27.80;54.50;;;;;;5129612;28;19944;-56
2021/06/27 02:09:49;;;;;;;;;;;27.80;54.50;;;;;;5133176;28;19924;-55
2021/06/27 02:12:16;;;;;;;;;;;27.80;54.50;;;;;;5114378;28;19924;-58
2021/06/27 02:14:43;;;;;;;;;;;27.80;54.50;;;;;;5112640;28;19924;-53
2021/06/27 02:17:10;;;;;;;;;;;27.80;54.50;;;;;;5129480;28;19968;-55
2021/06/27 02:19:37;;;;;;;;;;;27.80;54.50;;;;;;5129471;28;19923;-52
2021/06/27 02:22:05;;;;;;;;;;;27.80;54.50;;;;;;5130897;28;20027;-55
2021/06/27 02:24:32;;;;;;;;;;;27.70;54.50;;;;;;5130668;28;19976;-56
2021/06/27 02:27:00;;;;;;;;;;;27.70;54.50;;;;;;5127365;28;19973;-57
2021/06/27 02:29:28;;;;;;;;;;;27.70;54.50;;;;;;5117972;27;20036;-55
2021/06/27 02:31:58;;;;;;;;;;;27.70;54.50;;;;;;5132110;27;19931;-54
2021/06/27 02:34:26;;;;;;;;;;;27.70;54.50;;;;;;5133300;27;19924;-57
2021/06/27 02:36:53;;;;;;;;;;;27.70;54.50;;;;;;5134869;27;19923;-54
2021/06/27 02:39:20;;;;;;;;;;;27.70;54.50;;;;;;5132840;27;19923;-56
2021/06/27 02:41:47;;;;;;;;;;;27.70;54.50;;;;;;5128260;27;20266;-57
2021/06/27 02:44:14;;;;;;;;;;;27.70;54.50;;;;;;5136017;27;19923;-53
2021/06/27 02:46:42;;;;;;;;;;;27.70;54.50;;;;;;5135849;27;19924;-56
2021/06/27 02:49:09;;;;;;;;;;;27.70;55.10;;;;;;5134465;27;19963;-56
2021/06/27 02:51:36;;;;;;;;;;;27.70;54.50;;;;;;5116863;27;19927;-57
2021/06/27 02:54:03;;;;;;;;;;;27.70;54.50;;;;;;5133930;27;19969;-50
2021/06/27 02:56:30;;;;;;;;;;;27.70;54.50;;;;;;5135445;27;20387;-55
2021/06/27 02:58:57;;;;;;;;;;;27.70;54.50;;;;;;5135358;27;19931;-55
2021/06/27 03:01:24;;;;;;;;;;;27.70;54.50;;;;;;5134234;27;19968;-54
2021/06/27 03:03:51;;;;;;;;;;;27.70;54.60;;;;;;5133863;27;19923;-57
2021/06/27 03:06:19;;;;;;;;;;;27.70;54.50;;;;;;5123657;27;19931;-55
2021/06/27 03:08:46;;;;;;;;;;;27.70;54.60;;;;;;5128111;27;19930;-53
2021/06/27 03:11:13;;;;;;;;;;;27.70;54.50;;;;;;5133044;27;19923;-55
2021/06/27 03:13:41;;;;;;;;;;;27.70;54.60;;;;;;5127902;27;19931;-54
2021/06/27 03:16:08;;;;;;;;;;;27.70;54.60;;;;;;5127484;27;19924;-56
2021/06/27 03:18:36;;;;;;;;;;;27.70;54.60;;;;;;5118270;27;19973;-56
2021/06/27 03:21:03;;;;;;;;;;;27.70;54.60;;;;;;5133802;27;19923;-56
2021/06/27 03:23:30;;;;;;;;;;;27.70;54.50;;;;;;5117850;27;19968;-53
2021/06/27 03:25:57;;;;;;;;;;;27.70;54.50;;;;;;5132261;27;19923;-58
2021/06/27 03:28:25;;;;;;;;;;;27.70;54.50;;;;;;5125126;27;19988;-57
2021/06/27 03:30:52;;;;;;;;;;;27.70;54.50;;;;;;5115582;27;19931;-56
2021/06/27 03:33:20;;;;;;;;;;;27.70;54.50;;;;;;5134687;27;19923;-53
2021/06/27 03:35:47;;;;;;;;;;;27.70;54.50;;;;;;5134847;27;19924;-56
2021/06/27 03:38:27;;;;;;;;;;;27.70;54.50;;;;;;5132823;27;19932;-55
2021/06/27 03:40:55;;;;;;;;;;;27.70;54.50;;;;;;5115365;27;19923;-56
2021/06/27 03:43:22;;;;;;;;;;;27.70;54.40;;;;;;5133147;27;19955;-54
2021/06/27 03:45:49;;;;;;;;;;;27.70;54.40;;;;;;5121059;27;19924;-56
2021/06/27 03:48:16;;;;;;;;;;;27.70;54.40;;;;;;5098188;28;19974;-55
2021/06/27 03:50:43;;;;;;;;;;;27.70;54.40;;;;;;5134194;27;19996;-57
2021/06/27 03:53:10;;;;;;;;;;;27.70;54.40;;;;;;5117566;27;19924;-56
2021/06/27 03:55:37;;;;;;;;;;;27.70;54.40;;;;;;5114387;27;19924;-56
2021/06/27 03:58:03;;;;;;;;;;;27.70;54.40;;;;;;5134594;27;20314;-57
2021/06/27 04:00:31;;;;;;;;;;;27.80;54.40;;;;;;5131989;27;19927;-53
2021/06/27 04:02:58;;;;;;;;;;;27.80;54.40;;;;;;5131713;27;19927;-54
2021/06/27 04:05:25;;;;;;;;;;;27.80;54.40;;;;;;5133889;27;19927;-55
2021/06/27 04:07:52;;;;;;;;;;;27.80;54.30;;;;;;5134443;27;20278;-54
2021/06/27 04:10:20;;;;;;;;;;;27.80;54.30;;;;;;5133052;27;19924;-55
2021/06/27 04:12:47;;;;;;;;;;;27.80;54.30;;;;;;5133075;27;20320;-57
2021/06/27 04:15:14;;;;;;;;;;;27.80;54.30;;;;;;5132955;27;19977;-56
2021/06/27 04:17:41;;;;;;;;;;;27.80;54.30;;;;;;5131271;27;19923;-55
2021/06/27 04:20:09;;;;;;;;;;;27.80;54.20;;;;;;5132564;27;19923;-57
2021/06/27 04:22:36;;;;;;;;;;;27.90;54.10;;;;;;5133820;27;19945;-57
2021/06/27 04:25:04;;;;;;;;;;;27.90;54.00;;;;;;5133756;27;20375;-54
2021/06/27 04:27:31;;;;;;;;;;;28.00;53.90;;;;;;5131988;27;19924;-53
2021/06/27 04:29:58;;;;;;;;;;;28.00;53.80;;;;;;5134921;27;19927;-54
2021/06/27 04:32:25;;;;;;;;;;;28.00;53.80;;;;;;5131133;27;19984;-55
2021/06/27 04:34:53;;;;;;;;;;;28.00;53.80;;;;;;5132436;27;19955;-53
2021/06/27 04:37:20;;;;;;;;;;;28.00;53.80;;;;;;5131202;27;20299;-54
2021/06/27 04:39:48;;;;;;;;;;;28.00;54.20;;;;;;5116563;27;19981;-54
2021/06/27 04:42:14;;;;;;;;;;;28.10;53.60;;;;;;5134158;27;20386;-56
2021/06/27 04:44:42;;;;;;;;;;;28.10;53.50;;;;;;5114017;27;19931;-58
2021/06/27 04:47:09;;;;;;;;;;;28.20;53.40;;;;;;5116821;27;19947;-57
2021/06/27 04:49:40;;;;;;;;;;;28.20;53.40;;;;;;5115510;27;19932;-56
2021/06/27 04:52:08;;;;;;;;;;;28.20;53.20;;;;;;5133378;27;19999;-56
2021/06/27 04:54:36;;;;;;;;;;;28.30;53.20;;;;;;5115580;27;19924;-53
2021/06/27 04:57:04;;;;;;;;;;;28.30;53.10;;;;;;5116426;27;19928;-55
2021/06/27 04:59:31;;;;;;;;;;;28.30;53.00;;;;;;5127654;27;20332;-54
2021/06/27 05:01:58;;;;;;;;;;;28.30;52.90;;;;;;5131485;27;20034;-56
2021/06/27 05:04:25;;;;;;;;;;;28.40;52.90;;;;;;5132196;27;20398;-54
2021/06/27 05:06:52;;;;;;;;;;;28.40;52.90;;;;;;5130474;27;19923;-56
2021/06/27 05:09:19;;;;;;;;;;;28.40;52.80;;;;;;5130205;27;19928;-55
2021/06/27 05:11:46;;;;;;;;;;;28.40;52.80;;;;;;5131646;27;19930;-56
2021/06/27 05:14:13;;;;;;;;;;;28.40;52.70;;;;;;5130545;27;19927;-55
2021/06/27 05:16:40;;;;;;;;;;;28.40;52.70;;;;;;5132739;27;20379;-55
2021/06/27 05:19:07;;;;;;;;;;;28.50;52.80;;;;;;5130264;27;19962;-55
2021/06/27 05:21:34;;;;;;;;;;;28.50;52.70;;;;;;5131800;27;19927;-56
2021/06/27 05:24:01;;;;;;;;;;;28.50;52.70;;;;;;5130430;27;20324;-56
2021/06/27 05:26:28;;;;;;;;;;;28.50;52.70;;;;;;5131539;27;19923;-56
2021/06/27 05:28:55;;;;;;;;;;;28.50;52.70;;;;;;5115763;28;19924;-55
2021/06/27 05:31:22;;;;;;;;;;;28.50;52.70;;;;;;5129924;27;19969;-55
2021/06/27 05:33:49;;;;;;;;;;;28.60;52.70;;;;;;5130236;27;20379;-58
2021/06/27 05:36:16;;;;;;;;;;;28.60;52.70;;;;;;5114335;27;19923;-56
2021/06/27 05:38:43;;;;;;;;;;;28.60;52.80;;;;;;5113638;28;19931;-56
2021/06/27 05:41:11;;;;;;;;;;;28.60;52.80;;;;;;5114416;27;19924;-57
2021/06/27 05:43:37;;;;;;;;;;;28.60;52.80;;;;;;5132652;27;20399;-58
2021/06/27 05:46:04;;;;;;;;;;;28.60;52.80;;;;;;5114069;27;19923;-56
2021/06/27 05:48:31;;;;;;;;;;;28.60;52.80;;;;;;5131039;27;20440;-55
2021/06/27 05:50:58;;;;;;;;;;;28.60;52.80;;;;;;5130970;27;20374;-53
2021/06/27 05:53:25;;;;;;;;;;;28.60;52.80;;;;;;5129785;28;19924;-54
2021/06/27 05:56:09;;;;;;;;;;;28.60;52.80;;;;;;5131599;28;19988;-54
2021/06/27 05:58:37;;;;;;;;;;;28.60;52.80;;;;;;5130504;28;19976;-56
2021/06/27 06:01:07;;;;;;;;;;;28.60;52.90;;;;;;5131186;28;20328;-53
2021/06/27 06:03:35;;;;;;;;;;;28.60;52.90;;;;;;5133321;28;19923;-53
2021/06/27 06:06:03;;;;;;;;;;;28.60;52.90;;;;;;5132744;27;20336;-56
2021/06/27 06:08:30;;;;;;;;;;;28.60;52.90;;;;;;5136742;27;20264;-56
2021/06/27 06:10:57;;;;;;;;;;;28.60;52.90;;;;;;5133822;27;19927;-57
2021/06/27 06:13:24;;;;;;;;;;;28.60;52.90;;;;;;5134858;27;19923;-56
2021/06/27 06:16:09;;;;;;;;;;;28.60;52.90;;;;;;5135462;27;20006;-53
2021/06/27 06:18:40;;;;;;;;;;;28.60;53.00;;;;;;5135003;27;20351;-56
2021/06/27 06:21:07;;;;;;;;;;;28.60;53.00;;;;;;5133620;27;19935;-57
2021/06/27 06:23:34;;;;;;;;;;;28.60;53.00;;;;;;5134812;27;20403;-53
2021/06/27 06:26:01;;;;;;;;;;;28.60;53.00;;;;;;5119278;27;19992;-53
2021/06/27 06:28:28;;;;;;;;;;;28.60;53.30;;;;;;5134685;27;19972;-55
2021/06/27 06:30:55;;;;;;;;;;;28.60;53.10;;;;;;5124336;27;19980;-54
2021/06/27 06:33:22;;;;;;;;;;;28.50;53.00;;;;;;5117822;27;19923;-56
2021/06/27 06:35:49;;;;;;;;;;;28.50;53.10;;;;;;5106020;27;20039;-53
2021/06/27 06:38:16;;;;;;;;;;;28.60;53.10;;;;;;5133675;27;19976;-57
2021/06/27 06:40:43;;;;;;;;;;;28.60;53.10;;;;;;5118806;27;20383;-55
2021/06/27 06:43:10;;;;;;;;;;;28.50;53.10;;;;;;5118287;27;19976;-53
2021/06/27 06:45:37;;;;;;;;;;;28.50;53.20;;;;;;5122734;27;20064;-54
2021/06/27 06:48:05;;;;;;;;;;;28.50;53.20;;;;;;5135550;27;19931;-52
2021/06/27 06:50:31;;;;;;;;;;;28.50;53.20;;;;;;5134792;27;19969;-54
2021/06/27 06:52:59;;;;;;;;;;;28.50;53.20;;;;;;5117413;27;19924;-55
2021/06/27 06:55:29;;;;;;;;;;;28.50;53.20;;;;;;5134184;27;20375;-53
2021/06/27 06:57:56;;;;;;;;;;;28.50;53.20;;;;;;5117643;27;19966;-54
2021/06/27 07:00:24;;;;;;;;;;;28.50;53.20;;;;;;5133710;27;20339;-56
2021/06/27 07:02:51;;;;;;;;;;;28.50;53.20;;;;;;5133104;27;19927;-57
2021/06/27 07:05:18;;;;;;;;;;;28.50;53.20;;;;;;5134330;27;19923;-56
2021/06/27 07:07:45;;;;;;;;;;;28.50;53.20;;;;;;5135338;27;20398;-56
2021/06/27 07:10:13;;;;;;;;;;;28.50;53.20;;;;;;5133908;27;19976;-52
2021/06/27 07:12:41;;;;;;;;;;;28.50;53.20;;;;;;5132957;27;19988;-57
2021/06/27 07:15:09;;;;;;;;;;;28.60;53.30;;;;;;5135145;27;19924;-57
2021/06/27 07:17:36;;;;;;;;;;;28.50;53.20;;;;;;5133357;27;19927;-56
2021/06/27 07:20:08;;;;;;;;;;;28.60;53.30;;;;;;5135032;27;19923;-55
2021/06/27 07:22:36;;;;;;;;;;;28.60;53.30;;;;;;5133924;27;19969;-57
2021/06/27 07:25:04;;;;;;;;;;;28.60;53.30;;;;;;5109527;28;20383;-56
2021/06/27 07:27:30;;;;;;;;;;;28.60;53.30;;;;;;5132456;27;19923;-56
2021/06/27 07:29:57;;;;;;;;;;;28.60;53.30;;;;;;5133593;27;19931;-57
2021/06/27 07:32:24;;;;;;;;;;;28.60;53.30;;;;;;5132277;27;19966;-57
2021/06/27 07:34:51;;;;;;;;;;;28.60;53.30;;;;;;5133812;27;19923;-57
2021/06/27 07:37:38;;;;;;;;;;;28.60;53.30;;;;;;5133342;27;20435;-55
2021/06/27 07:40:06;;;;;;;;;;;28.60;53.30;;;;;;5135172;27;19923;-56
2021/06/27 07:42:33;;;;;;;;;;;28.60;53.30;;;;;;5134658;27;20395;-56
2021/06/27 07:45:00;;;;;;;;;;;28.60;53.30;;;;;;5133082;27;19924;-55
2021/06/27 07:47:27;;;;;;;;;;;28.60;53.20;;;;;;5132641;27;19923;-57
2021/06/27 07:49:54;;;;;;;;;;;28.60;53.30;;;;;;5133486;27;19923;-55
2021/06/27 07:52:21;;;;;;;;;;;28.60;53.20;;;;;;5134028;27;19958;-55
2021/06/27 07:54:48;;;;;;;;;;;28.60;53.20;;;;;;5134542;27;20003;-55
2021/06/27 07:57:15;;;;;;;;;;;28.60;53.20;;;;;;5134568;27;20320;-56
2021/06/27 07:59:42;;;;;;;;;;;28.70;53.30;;;;;;5133680;27;19968;-56
2021/06/27 08:02:09;;;;;;;;;;;28.70;53.30;;;;;;5116295;27;19968;-56
2021/06/27 08:04:36;;;;;;;;;;;28.60;53.20;;;;;;5135620;27;19923;-55
2021/06/27 08:07:03;;;;;;;;;;;28.70;53.90;;;;;;5117445;27;20336;-55
2021/06/27 08:09:30;;;;;;;;;;;28.70;53.30;;;;;;5132578;27;19978;-56
2021/06/27 08:11:57;;;;;;;;;;;28.70;53.30;;;;;;5133453;27;19923;-56
2021/06/27 08:14:24;;;;;;;;;;;28.70;53.30;;;;;;5132564;27;19977;-56
2021/06/27 08:16:51;;;;;;;;;;;28.70;53.30;;;;;;5132572;27;19923;-56
2021/06/27 08:19:18;;;;;;;;;;;28.70;53.30;;;;;;5123475;27;20336;-56
2021/06/27 08:21:45;;;;;;;;;;;28.70;53.90;;;;;;5127463;27;19927;-56
2021/06/27 08:24:12;;;;;;;;;;;28.70;53.30;;;;;;5132446;27;20431;-55
2021/06/27 08:26:39;;;;;;;;;;;28.70;53.30;;;;;;5125976;27;19959;-56
2021/06/27 08:29:06;;;;;;;;;;;28.70;53.30;;;;;;5121898;27;19967;-55
2021/06/27 08:31:33;;;;;;;;;;;28.70;53.30;;;;;;5129956;27;19999;-56
2021/06/27 08:34:02;;;;;;;;;;;28.70;53.40;;;;;;5117070;27;20008;-55
2021/06/27 08:36:30;;;;;;;;;;;28.70;53.40;;;;;;5115657;27;19966;-53
2021/06/27 08:38:57;;;;;;;;;;;28.70;53.40;;;;;;5119916;27;20029;-55
2021/06/27 08:41:24;;;;;;;;;;;28.70;54.00;;;;;;5132779;27;19932;-54
2021/06/27 08:43:51;;;;;;;;;;;28.70;53.40;;;;;;5132682;27;20014;-57
2021/06/27 08:46:19;;;;;;;;;;;28.70;53.30;;;;;;5116206;27;19974;-51
2021/06/27 08:48:46;;;;;;;;;;;28.70;53.30;;;;;;5115255;27;19924;-57
2021/06/27 08:51:13;;;;;;;;;;;28.70;53.30;;;;;;5113837;27;20405;-53
2021/06/27 08:53:42;;;;;;;;;;;28.70;53.30;;;;;;5132010;27;19923;-57
2021/06/27 08:56:09;;;;;;;;;;;28.70;53.30;;;;;;5132338;27;19927;-55
2021/06/27 08:58:41;;;;;;;;;;;28.70;53.30;;;;;;5134628;27;19924;-56
2021/06/27 09:01:14;;;;;;;;;;;28.70;53.20;;;;;;5131165;27;19975;-53
2021/06/27 09:03:46;;;;;;;;;;;28.80;53.30;;;;;;5114208;27;19923;-55
2021/06/27 09:06:23;;;;;;;;;;;28.80;53.20;;;;;;5130444;27;19972;-54
2021/06/27 09:09:09;;;;;;;;;;;28.80;53.20;;;;;;5131660;27;19924;-53
2021/06/27 09:11:36;;;;;;;;;;;28.80;53.20;;;;;;5131758;27;19976;-55
2021/06/27 09:14:03;;;;;;;;;;;28.80;53.10;;;;;;5132348;27;19976;-55
2021/06/27 09:16:30;;;;;;;;;;;28.80;53.10;;;;;;5130384;27;20007;-54
2021/06/27 09:19:02;;;;;;;;;;;28.80;53.10;;;;;;5131389;27;19924;-53
2021/06/27 09:21:30;;;;;;;;;;;28.80;53.10;;;;;;5132702;27;19927;-54
2021/06/27 09:23:57;;;;;;;;;;;28.90;53.10;;;;;;5119863;27;19927;-55
2021/06/27 09:26:31;;;;;;;;;;;28.90;53.10;;;;;;5128907;27;19923;-54
2021/06/27 09:28:58;;;;;;;;;;;28.90;53.10;;;;;;5127220;27;19968;-53
2021/06/27 09:31:31;;;;;;;;;;;28.90;53.00;;;;;;5132234;27;19924;-55
2021/06/27 09:33:59;;;;;;;;;;;28.90;53.00;;;;;;5114428;27;19927;-53
2021/06/27 09:36:26;;;;;;;;;;;28.90;52.90;;;;;;5131374;27;19923;-53
2021/06/27 09:38:54;;;;;;;;;;;28.90;52.90;;;;;;5129852;27;19927;-53
2021/06/27 09:41:29;;;;;;;;;;;29.00;52.90;;;;;;5131288;27;20002;-56
2021/06/27 09:43:58;;;;;;;;;;;29.00;53.00;;;;;;5130654;27;19927;-56
2021/06/27 09:46:30;;;;;;;;;;;29.00;52.90;;;;;;5126169;27;19968;-56
2021/06/27 09:48:59;;;;;;;;;;;29.00;52.90;;;;;;5131203;27;19923;-57
2021/06/27 09:51:28;;;;;;;;;;;29.00;52.90;;;;;;5129639;27;19968;-57
2021/06/27 09:53:57;;;;;;;;;;;29.00;52.90;;;;;;5129644;28;19959;-54
2021/06/27 09:56:24;;;;;;;;;;;28.90;52.80;;;;;;5129732;28;19955;-51
2021/06/27 09:58:55;;;;;;;;;;;29.00;52.90;;;;;;5132515;28;19959;-59
2021/06/27 10:01:25;;;;;;;;;;;28.90;52.90;;;;;;5126160;28;19924;-58
2021/06/27 10:03:56;;;;;;;;;;;28.90;52.90;;;;;;5115939;28;20391;-55
2021/06/27 10:06:28;;;;;;;;;;;28.90;52.90;;;;;;5118257;28;19928;-57
2021/06/27 10:09:06;;;;;;;;;;;28.90;52.90;;;;;;5110332;28;19924;-56
2021/06/27 10:11:33;;;;;;;;;;;29.00;53.00;;;;;;5113853;28;19970;-55
2021/06/27 10:14:05;;;;;;;;;;;29.00;52.90;;;;;;5114391;28;19924;-56
2021/06/27 10:16:33;;;;;;;;;;;29.00;52.90;;;;;;5131349;28;19923;-54
2021/06/27 10:19:01;;;;;;;;;;;29.00;52.90;;;;;;5132191;28;20345;-54
2021/06/27 10:21:29;;;;;;;;;;;29.00;52.80;;;;;;5131707;28;19976;-55
2021/06/27 10:23:57;;;;;;;;;;;29.00;52.80;;;;;;5131810;28;19984;-56
2021/06/27 10:26:25;;;;;;;;;;;29.10;52.80;;;;;;5131923;28;20412;-53
2021/06/27 10:28:52;;;;;;;;;;;29.10;52.70;;;;;;5129084;28;19964;-54
2021/06/27 10:31:24;;;;;;;;;;;29.10;52.60;;;;;;5132353;28;20506;-56
2021/06/27 10:33:52;;;;;;;;;;;29.20;52.60;;;;;;5131970;28;19930;-57
2021/06/27 10:36:25;;;;;;;;;;;29.20;52.50;;;;;;5133166;28;19927;-54
2021/06/27 10:38:52;;;;;;;;;;;29.20;52.40;;;;;;5130775;28;20039;-56
2021/06/27 10:41:19;;;;;;;;;;;29.20;52.40;;;;;;5130898;28;19972;-56
2021/06/27 10:44:05;;;;;;;;;;;29.20;52.40;;;;;;5129662;28;20006;-56
2021/06/27 10:46:52;;;;;;;;;;;29.20;52.40;;;;;;5131158;28;20302;-57
2021/06/27 10:49:39;;;;;;;;;;;29.20;52.40;;;;;;5132125;28;19928;-57
2021/06/27 10:52:10;;;;;;;;;;;29.20;52.50;;;;;;5101423;27;19924;-55
2021/06/27 10:54:41;;;;;;;;;;;29.10;52.50;;;;;;5135783;27;19970;-57
2021/06/27 10:57:16;;;;;;;;;;;29.10;52.50;;;;;;5119135;27;20443;-57
2021/06/27 10:59:47;;;;;;;;;;;29.10;52.60;;;;;;5119898;27;19923;-55
2021/06/27 11:02:18;;;;;;;;;;;29.10;52.60;;;;;;5116299;28;19923;-55
2021/06/27 11:04:45;;;;;;;;;;;29.10;52.70;;;;;;5134478;27;20009;-56
2021/06/27 11:07:31;;;;;;;;;;;29.10;52.70;;;;;;5117916;27;19924;-57
2021/06/27 11:10:16;;;;;;;;;;;29.10;52.70;;;;;;5117236;27;20383;-57
2021/06/27 11:12:55;;;;;;;;;;;29.10;52.70;;;;;;5120354;27;20367;-54
2021/06/27 11:15:23;;;;;;;;;;;29.00;52.70;;;;;;5134120;27;19928;-55
2021/06/27 11:17:51;;;;;;;;;;;29.00;52.80;;;;;;5135581;27;19957;-57
2021/06/27 11:20:18;;;;;;;;;;;29.00;52.80;;;;;;5133723;27;19924;-56
2021/06/27 11:22:52;;;;;;;;;;;29.00;52.80;;;;;;5117478;27;19976;-55
2021/06/27 11:25:37;;;;;;;;;;;29.00;52.80;;;;;;5116188;28;19927;-55
2021/06/27 11:28:18;;;;;;;;;;;29.00;52.80;;;;;;5126111;27;19932;-54
2021/06/27 11:31:16;;;;;;;;;;;29.00;52.80;;;;;;5134477;27;19978;-51
2021/06/27 11:33:43;;;;;;;;;;;29.00;52.80;;;;;;5134562;27;20002;-53
2021/06/27 11:36:26;;;;;;;;;;;29.00;52.80;;;;;;5132430;27;19967;-55
2021/06/27 11:38:53;;;;;;;;;;;29.00;52.80;;;;;;5133668;27;19962;-55
2021/06/27 11:41:20;;;;;;;;;;;29.00;52.80;;;;;;5132150;27;19924;-54
2021/06/27 11:43:53;;;;;;;;;;;29.00;52.80;;;;;;5133392;27;19931;-56
2021/06/27 11:46:26;;;;;;;;;;;29.00;52.70;;;;;;5117890;27;20337;-54
2021/06/27 11:48:53;;;;;;;;;;;29.00;52.80;;;;;;5117839;27;20308;-54
2021/06/27 11:51:31;;;;;;;;;;;29.00;52.70;;;;;;5133805;27;20017;-53
2021/06/27 11:53:59;;;;;;;;;;;29.00;52.70;;;;;;5121202;27;19923;-56
2021/06/27 11:56:26;;;;;;;;;;;29.00;52.80;;;;;;5115888;27;19924;-54
2021/06/27 11:59:11;;;;;;;;;;;29.00;52.70;;;;;;5133286;27;19928;-56
2021/06/27 12:01:38;;;;;;;;;;;29.00;52.70;;;;;;5134031;27;20002;-55
2021/06/27 12:04:05;;;;;;;;;;;29.00;52.70;;;;;;5132119;27;19967;-57
2021/06/27 12:06:36;;;;;;;;;;;29.00;52.70;;;;;;5118495;27;19923;-56
2021/06/27 12:09:04;;;;;;;;;;;29.00;52.70;;;;;;5115039;28;19924;-54
2021/06/27 12:11:31;;;;;;;;;;;29.00;52.70;;;;;;5115101;28;19928;-56
2021/06/27 12:13:58;;;;;;;;;;;29.00;52.70;;;;;;5134312;27;19924;-57
2021/06/27 12:16:31;;;;;;;;;;;29.00;52.70;;;;;;5135092;27;19923;-56
2021/06/27 12:18:59;;;;;;;;;;;29.00;52.70;;;;;;5133190;27;20021;-57
2021/06/27 12:21:27;;;;;;;;;;;29.00;52.70;;;;;;5132564;27;19964;-55
2021/06/27 12:23:56;;;;;;;;;;;29.00;52.70;;;;;;5133231;27;20328;-55
2021/06/27 12:26:23;;;;;;;;;;;29.00;52.70;;;;;;5133935;27;20440;-56
2021/06/27 12:28:53;;;;;;;;;;;29.00;52.70;;;;;;5113912;27;20010;-57
2021/06/27 12:31:27;;;;;;;;;;;29.00;52.70;;;;;;5132524;27;19923;-56
2021/06/27 12:33:55;;;;;;;;;;;29.00;52.70;;;;;;5133144;27;20415;-56
2021/06/27 12:36:24;;;;;;;;;;;29.00;52.60;;;;;;5132942;27;20258;-54
2021/06/27 12:38:54;;;;;;;;;;;29.00;52.60;;;;;;5132687;27;19927;-55
2021/06/27 12:41:22;;;;;;;;;;;29.00;52.60;;;;;;5132486;27;19929;-55
2021/06/27 12:43:55;;;;;;;;;;;29.00;52.60;;;;;;5132418;27;19927;-56
2021/06/27 12:46:27;;;;;;;;;;;29.00;52.60;;;;;;5117058;27;19974;-55
2021/06/27 12:49:00;;;;;;;;;;;29.00;52.60;;;;;;5115064;27;19923;-56
2021/06/27 12:51:32;;;;;;;;;;;29.00;52.60;;;;;;5128807;27;19930;-57
2021/06/27 12:53:59;;;;;;;;;;;29.00;52.60;;;;;;5131174;27;19927;-56
2021/06/27 12:56:44;;;;;;;;;;;29.00;52.60;;;;;;5132401;27;19972;-57
2021/06/27 12:59:11;;;;;;;;;;;29.00;52.60;;;;;;5121570;27;19930;-55
2021/06/27 13:01:59;;;;;;;;;;;29.00;52.60;;;;;;5127560;27;20210;-57
2021/06/27 13:04:28;;;;;;;;;;;29.00;52.60;;;;;;5130464;27;20340;-54
2021/06/27 13:07:05;;;;;;;;;;;29.00;52.60;;;;;;5132773;27;19923;-56
2021/06/27 13:09:33;;;;;;;;;;;29.00;52.60;;;;;;5130726;27;19988;-56
2021/06/27 13:12:12;;;;;;;;;;;29.00;52.50;;;;;;5130522;27;19927;-56
2021/06/27 13:14:47;;;;;;;;;;;29.00;52.50;;;;;;5130934;27;20037;-55
2021/06/27 13:17:21;;;;;;;;;;;29.00;52.50;;;;;;5131672;27;20351;-57
2021/06/27 13:20:14;;;;;;;;;;;29.00;52.50;;;;;;5131406;27;19976;-56
2021/06/27 13:22:53;;;;;;;;;;;29.00;53.00;;;;;;5114960;27;19923;-56
2021/06/27 13:25:35;;;;;;;;;;;29.00;52.40;;;;;;5130578;27;19923;-55
2021/06/27 13:28:04;;;;;;;;;;;29.00;52.40;;;;;;5117987;27;20109;-54
2021/06/27 13:30:42;;;;;;;;;;;29.00;52.30;;;;;;5130620;27;19927;-55
2021/06/27 13:33:10;;;;;;;;;;;29.10;52.30;;;;;;5131839;27;20015;-57
2021/06/27 13:35:42;;;;;;;;;;;29.10;52.30;;;;;;5131063;27;19924;-55
2021/06/27 13:38:13;;;;;;;;;;;29.10;52.20;;;;;;5114560;28;19956;-56
2021/06/27 13:40:41;;;;;;;;;;;29.10;52.10;;;;;;5116370;27;20371;-56
2021/06/27 13:43:09;;;;;;;;;;;29.20;52.10;;;;;;5127216;27;19984;-56
2021/06/27 13:45:36;;;;;;;;;;;29.20;52.00;;;;;;5118200;27;19924;-56
2021/06/27 13:48:04;;;;;;;;;;;29.20;51.90;;;;;;5128969;27;19927;-57
2021/06/27 13:50:31;;;;;;;;;;;29.20;51.90;;;;;;5120224;28;20434;-56
2021/06/27 13:52:59;;;;;;;;;;;29.20;51.80;;;;;;5126643;27;19978;-57
2021/06/27 13:55:27;;;;;;;;;;;29.20;51.90;;;;;;5129893;27;20459;-56
2021/06/27 13:57:55;;;;;;;;;;;29.20;51.90;;;;;;5122446;28;19969;-56
2021/06/27 14:00:22;;;;;;;;;;;29.20;51.90;;;;;;5123554;28;19923;-56
2021/06/27 14:02:51;;;;;;;;;;;29.20;51.90;;;;;;5132228;28;19927;-58
2021/06/27 14:05:18;;;;;;;;;;;29.10;51.90;;;;;;5131396;28;20333;-57
2021/06/27 14:07:51;;;;;;;;;;;29.10;51.80;;;;;;5132302;28;20011;-57
2021/06/27 14:10:19;;;;;;;;;;;29.10;51.80;;;;;;5133555;28;20337;-56
2021/06/27 14:12:47;;;;;;;;;;;29.10;51.80;;;;;;5130898;28;20294;-57
2021/06/27 14:15:15;;;;;;;;;;;29.10;51.80;;;;;;5131317;28;20286;-56
2021/06/27 14:17:42;;;;;;;;;;;29.10;51.80;;;;;;5131020;28;20372;-57
2021/06/27 14:20:11;;;;;;;;;;;29.10;51.80;;;;;;5132258;28;20274;-54
2021/06/27 14:22:38;;;;;;;;;;;29.10;51.80;;;;;;5131280;28;20341;-57
2021/06/27 14:25:06;;;;;;;;;;;29.10;51.80;;;;;;5132102;28;19970;-58
2021/06/27 14:27:35;;;;;;;;;;;29.10;51.80;;;;;;5122028;27;19924;-56